Staten Island, NY (10301)

4:47 PM EDT on September 16, 2014 (GMT -0400)
Bay Ridge Brooklyn | Change Station
CLOSE
Current Station
Personal Weather Station
Location: Brooklyn, NY
Elevation: 43 ft
Nearby Weather Stations

Elev 43 ft 40.63 °N, 74.04 °W | Updated 24 seconds ago

Mostly Cloudy
Mostly Cloudy
66.7 °F
Feels Like 66.7 °F
N
2.0
Wind Variable Wind from SE
Gusts 6.0 mph

Today
High -- | Low -- °F
--% Chance of Precip.
Yesterday
High -- | Low -- °F
Precip. -- in
6:38 AM 7:03 PM
Last Quarter, 42% visible
Pressure 29.96 in
Visibility 10.0 miles
Clouds Mostly Cloudy 4000 ft
Mostly Cloudy 5500 ft
Mostly Cloudy 8000 ft
Dew Point 60 °F
Humidity 79%
Rainfall 0.55 in
Snow Depth Not available.
UV 0.5 out of 12
Pollen 3.80 out of 12
PM2.5 Good
Flu Activity Not available.
METAR KEWR 161951Z VRB05KT 10SM BKN040 BKN055 BKN080 22/12 A2996 RMK AO2 SLP146 T02170122

More Conditions Fewer Conditions

Pressure 29.96 in
Visibility 10.0 miles
Clouds Mostly Cloudy 4000 ft
Mostly Cloudy 5500 ft
Mostly Cloudy 8000 ft
Dew Point 60 °F
Humidity 79%
Rainfall 0.55 in
Snow Depth Not available.
UV 0.5 out of 12
Pollen 3.80 out of 12
PM2.5 Good
Flu Activity Not available.
METAR KEWR 161951Z VRB05KT 10SM BKN040 BKN055 BKN080 22/12 A2996 RMK AO2 SLP146 T02170122

More Conditions Fewer Conditions

10-Day Weather Forecast

Almanac

Astronomy

Sep. 16, 2014 Rise Set
Actual Time 6:38 AM EDT 7:03 PM EDT
Civil Twilight 6:10 AM EDT 7:31 PM EDT
Nautical Twilight 5:38 AM EDT 8:03 PM EDT
Astronomical Twilight 5:05 AM EDT 8:36 PM EDT
Moon No Moon Rise 2:26 PM EDT
Length of Visible Light 13h 20m
Length of Day
12h 25m
Tomorrow will be 2m 39s shorter.
Last Quarter, 42% of the Moon is Illuminated
Today
Last Quarter
Sep 24
New
Oct 1
First Quarter
Oct 8
Full
Oct 15
Last Quarter

Today's Extremes

State Highs State Lows

Community

WunderPhotos

Upload Photos

1,753,882 photos uploaded!

Nearby

Air Quality

  Air Quality AQ Index Pollutant
Yesterday Good
OZONE
Yesterday Good
PM2.5
Current Good
PM2.5
Tuesday Good
PM2.5
Tuesday Good
OZONE
Wednesday Good
PM2.5
Wednesday Good
OZONE

Snow Depth

Station Depth Elevation
No new snow has been reported.

Earthquake Activity

City Distance Mag. Time & Date
No recent earthquake activity has been reported nearby.
Minimum magnitude displayed is 2.5.

Coastal Water Temperatures

Place Temperature
Sandy Hook, NJ 70.0 °F
The Battery, NY 71.1 °F
Bergen Point West Reach, NJ 71.1 °F
Kings Point, NY 70.0 °F

Nearby Weather Stations